sensor_id;sensor_type;location;lat;lon;timestamp;P1;durP1;ratioP1;P2;durP2;ratioP2
65172;SDS011;69059;52.218;5.172;2023-05-14T09:56:06;17.85;;;5.25;;
65172;SDS011;69059;52.218;5.172;2023-05-14T09:58:35;13.40;;;4.53;;
65172;SDS011;69059;52.218;5.172;2023-05-14T10:01:02;12.82;;;5.00;;
65172;SDS011;69059;52.218;5.172;2023-05-14T10:03:31;12.80;;;4.50;;
65172;SDS011;69059;52.218;5.172;2023-05-14T10:06:02;8.50;;;3.65;;
65172;SDS011;69059;52.218;5.172;2023-05-14T10:08:33;10.80;;;3.92;;
65172;SDS011;69059;52.218;5.172;2023-05-14T10:11:02;11.38;;;4.38;;
65172;SDS011;69059;52.218;5.172;2023-05-14T10:13:36;12.43;;;4.10;;
65172;SDS011;69059;52.218;5.172;2023-05-14T10:16:07;11.50;;;3.95;;
65172;SDS011;69059;52.218;5.172;2023-05-14T10:18:41;8.05;;;3.72;;
65172;SDS011;69059;52.218;5.172;2023-05-14T10:21:13;12.48;;;4.03;;
65172;SDS011;69059;52.218;5.172;2023-05-14T10:23:43;7.63;;;3.85;;
65172;SDS011;69059;52.218;5.172;2023-05-14T10:26:12;7.88;;;3.67;;
65172;SDS011;69059;52.218;5.172;2023-05-14T10:31:10;7.47;;;3.50;;
65172;SDS011;69059;52.218;5.172;2023-05-14T10:33:45;8.65;;;3.42;;
65172;SDS011;69059;52.218;5.172;2023-05-14T10:36:15;9.40;;;3.80;;
65172;SDS011;69059;52.218;5.172;2023-05-14T10:38:44;9.38;;;3.60;;
65172;SDS011;69059;52.218;5.172;2023-05-14T10:41:13;9.15;;;3.30;;
65172;SDS011;69059;52.218;5.172;2023-05-14T10:43:44;7.80;;;3.30;;
65172;SDS011;69059;52.218;5.172;2023-05-14T10:46:12;9.07;;;3.42;;
65172;SDS011;69059;52.218;5.172;2023-05-14T10:48:41;6.68;;;3.50;;
65172;SDS011;69059;52.218;5.172;2023-05-14T10:51:10;9.25;;;3.17;;
65172;SDS011;69059;52.218;5.172;2023-05-14T10:53:39;9.23;;;3.28;;
65172;SDS011;69059;52.218;5.172;2023-05-14T10:56:09;9.10;;;3.30;;
65172;SDS011;69059;52.218;5.172;2023-05-14T10:58:39;9.98;;;3.70;;
65172;SDS011;69059;52.218;5.172;2023-05-14T11:01:10;7.88;;;3.45;;
65172;SDS011;69059;52.218;5.172;2023-05-14T11:03:40;7.63;;;3.05;;
65172;SDS011;69059;52.218;5.172;2023-05-14T11:06:09;6.88;;;3.33;;
65172;SDS011;69059;52.218;5.172;2023-05-14T11:08:38;9.38;;;3.10;;
65172;SDS011;69059;52.218;5.172;2023-05-14T11:11:07;6.72;;;3.15;;
65172;SDS011;69059;52.218;5.172;2023-05-14T11:13:35;8.73;;;3.25;;
65172;SDS011;69059;52.218;5.172;2023-05-14T11:16:03;10.23;;;3.60;;
65172;SDS011;69059;52.218;5.172;2023-05-14T11:18:36;9.10;;;3.70;;
65172;SDS011;69059;52.218;5.172;2023-05-14T11:21:06;6.38;;;3.50;;
65172;SDS011;69059;52.218;5.172;2023-05-14T11:23:34;6.93;;;3.63;;
65172;SDS011;69059;52.218;5.172;2023-05-14T11:26:02;8.48;;;3.25;;
65172;SDS011;69059;52.218;5.172;2023-05-14T11:28:30;6.82;;;3.53;;
65172;SDS011;69059;52.218;5.172;2023-05-14T11:30:58;7.50;;;3.40;;
65172;SDS011;69059;52.218;5.172;2023-05-14T11:33:26;6.00;;;3.30;;
65172;SDS011;69059;52.218;5.172;2023-05-14T11:35:55;7.50;;;3.50;;
65172;SDS011;69059;52.218;5.172;2023-05-14T11:38:23;9.35;;;3.60;;
65172;SDS011;69059;52.218;5.172;2023-05-14T11:40:51;7.18;;;3.92;;
65172;SDS011;69059;52.218;5.172;2023-05-14T11:43:19;8.27;;;3.42;;
65172;SDS011;69059;52.218;5.172;2023-05-14T11:45:49;7.43;;;3.13;;
65172;SDS011;69059;52.218;5.172;2023-05-14T11:48:17;9.95;;;3.85;;
65172;SDS011;69059;52.218;5.172;2023-05-14T11:50:46;7.95;;;3.15;;
65172;SDS011;69059;52.218;5.172;2023-05-14T11:53:19;8.60;;;3.08;;
65172;SDS011;69059;52.218;5.172;2023-05-14T11:55:51;5.55;;;3.13;;
65172;SDS011;69059;52.218;5.172;2023-05-14T11:58:20;10.02;;;3.42;;
65172;SDS011;69059;52.218;5.172;2023-05-14T12:00:48;6.88;;;3.08;;
65172;SDS011;69059;52.218;5.172;2023-05-14T12:03:17;4.65;;;2.90;;
65172;SDS011;69059;52.218;5.172;2023-05-14T12:05:54;7.97;;;3.08;;
65172;SDS011;69059;52.218;5.172;2023-05-14T12:08:27;8.00;;;3.35;;
65172;SDS011;69059;52.218;5.172;2023-05-14T12:10:57;8.60;;;3.33;;
65172;SDS011;69059;52.218;5.172;2023-05-14T12:13:26;7.72;;;3.10;;
65172;SDS011;69059;52.218;5.172;2023-05-14T12:15:55;6.00;;;3.28;;
65172;SDS011;69059;52.218;5.172;2023-05-14T12:18:23;5.88;;;3.10;;
65172;SDS011;69059;52.218;5.172;2023-05-14T12:20:53;8.98;;;3.30;;
65172;SDS011;69059;52.218;5.172;2023-05-14T12:23:26;7.78;;;3.20;;
65172;SDS011;69059;52.218;5.172;2023-05-14T12:26:00;9.00;;;3.58;;
65172;SDS011;69059;52.218;5.172;2023-05-14T12:28:28;8.82;;;3.20;;
65172;SDS011;69059;52.218;5.172;2023-05-14T12:30:57;9.48;;;3.10;;
65172;SDS011;69059;52.218;5.172;2023-05-14T12:33:25;6.10;;;2.80;;
65172;SDS011;69059;52.218;5.172;2023-05-14T12:35:53;6.18;;;3.08;;
65172;SDS011;69059;52.218;5.172;2023-05-14T12:38:27;9.27;;;3.00;;
65172;SDS011;69059;52.218;5.172;2023-05-14T12:40:55;8.27;;;3.42;;
65172;SDS011;69059;52.218;5.172;2023-05-14T12:43:22;6.28;;;3.10;;
65172;SDS011;69059;52.218;5.172;2023-05-14T12:45:50;7.10;;;3.30;;
65172;SDS011;69059;52.218;5.172;2023-05-14T12:48:18;6.38;;;3.08;;
65172;SDS011;69059;52.218;5.172;2023-05-14T12:50:45;5.88;;;3.10;;
65172;SDS011;69059;52.218;5.172;2023-05-14T12:53:14;6.43;;;2.75;;
65172;SDS011;69059;52.218;5.172;2023-05-14T12:55:43;6.88;;;3.20;;
65172;SDS011;69059;52.218;5.172;2023-05-14T12:58:11;7.45;;;2.75;;
65172;SDS011;69059;52.218;5.172;2023-05-14T13:00:39;6.22;;;3.10;;
65172;SDS011;69059;52.218;5.172;2023-05-14T13:03:07;7.30;;;3.10;;
65172;SDS011;69059;52.218;5.172;2023-05-14T13:10:30;8.27;;;2.92;;
65172;SDS011;69059;52.218;5.172;2023-05-14T13:12:59;8.85;;;3.10;;
65172;SDS011;69059;52.218;5.172;2023-05-14T13:15:28;7.72;;;3.60;;
65172;SDS011;69059;52.218;5.172;2023-05-14T13:17:56;8.75;;;3.72;;
65172;SDS011;69059;52.218;5.172;2023-05-14T13:22:52;4.85;;;2.60;;
65172;SDS011;69059;52.218;5.172;2023-05-14T13:27:48;8.13;;;3.25;;
65172;SDS011;69059;52.218;5.172;2023-05-14T13:30:18;10.93;;;3.10;;
65172;SDS011;69059;52.218;5.172;2023-05-14T13:32:46;5.88;;;2.80;;
65172;SDS011;69059;52.218;5.172;2023-05-14T13:35:14;7.85;;;2.97;;
65172;SDS011;69059;52.218;5.172;2023-05-14T13:37:42;6.30;;;2.83;;
65172;SDS011;69059;52.218;5.172;2023-05-14T13:42:38;5.85;;;2.42;;
65172;SDS011;69059;52.218;5.172;2023-05-14T13:45:06;7.68;;;3.03;;
65172;SDS011;69059;52.218;5.172;2023-05-14T13:47:36;5.97;;;2.90;;
65172;SDS011;69059;52.218;5.172;2023-05-14T13:50:05;6.35;;;2.80;;
65172;SDS011;69059;52.218;5.172;2023-05-14T13:52:34;6.72;;;3.08;;
65172;SDS011;69059;52.218;5.172;2023-05-14T13:55:03;6.82;;;2.78;;
65172;SDS011;69059;52.218;5.172;2023-05-14T13:57:31;4.53;;;2.70;;
65172;SDS011;69059;52.218;5.172;2023-05-14T13:59:59;6.28;;;2.58;;
65172;SDS011;69059;52.218;5.172;2023-05-14T14:02:27;8.88;;;3.17;;
65172;SDS011;69059;52.218;5.172;2023-05-14T14:04:58;7.18;;;3.00;;
65172;SDS011;69059;52.218;5.172;2023-05-14T14:07:26;9.25;;;2.83;;
65172;SDS011;69059;52.218;5.172;2023-05-14T14:09:53;6.25;;;2.65;;
65172;SDS011;69059;52.218;5.172;2023-05-14T14:12:21;8.25;;;2.67;;
65172;SDS011;69059;52.218;5.172;2023-05-14T14:14:49;8.48;;;3.20;;
65172;SDS011;69059;52.218;5.172;2023-05-14T14:17:17;6.05;;;2.80;;
65172;SDS011;69059;52.218;5.172;2023-05-14T14:19:45;8.73;;;3.35;;
65172;SDS011;69059;52.218;5.172;2023-05-14T14:22:14;7.85;;;2.88;;
65172;SDS011;69059;52.218;5.172;2023-05-14T14:24:42;6.93;;;2.70;;
65172;SDS011;69059;52.218;5.172;2023-05-14T14:27:10;6.70;;;2.78;;
65172;SDS011;69059;52.218;5.172;2023-05-14T14:29:38;6.05;;;2.65;;
65172;SDS011;69059;52.218;5.172;2023-05-14T14:32:06;6.10;;;2.65;;
65172;SDS011;69059;52.218;5.172;2023-05-14T14:34:34;7.20;;;2.88;;
65172;SDS011;69059;52.218;5.172;2023-05-14T14:37:01;7.28;;;2.80;;
65172;SDS011;69059;52.218;5.172;2023-05-14T14:39:31;5.05;;;2.75;;
65172;SDS011;69059;52.218;5.172;2023-05-14T14:41:58;5.88;;;2.70;;
65172;SDS011;69059;52.218;5.172;2023-05-14T14:44:26;6.85;;;2.90;;
65172;SDS011;69059;52.218;5.172;2023-05-14T14:46:54;8.77;;;2.90;;
65172;SDS011;69059;52.218;5.172;2023-05-14T14:49:22;6.25;;;2.80;;
65172;SDS011;69059;52.218;5.172;2023-05-14T14:54:17;6.47;;;2.80;;
65172;SDS011;69059;52.218;5.172;2023-05-14T14:56:46;8.55;;;3.67;;
65172;SDS011;69059;52.218;5.172;2023-05-14T14:59:17;6.75;;;3.35;;
65172;SDS011;69059;52.218;5.172;2023-05-14T15:01:45;7.82;;;2.75;;
65172;SDS011;69059;52.218;5.172;2023-05-14T15:04:13;13.45;;;3.30;;
65172;SDS011;69059;52.218;5.172;2023-05-14T15:06:40;8.40;;;3.05;;
65172;SDS011;69059;52.218;5.172;2023-05-14T15:09:08;9.48;;;3.47;;
65172;SDS011;69059;52.218;5.172;2023-05-14T15:11:36;7.85;;;2.85;;
65172;SDS011;69059;52.218;5.172;2023-05-14T15:14:05;6.50;;;3.00;;
65172;SDS011;69059;52.218;5.172;2023-05-14T15:16:33;7.10;;;3.00;;
65172;SDS011;69059;52.218;5.172;2023-05-14T15:19:01;8.88;;;3.05;;
65172;SDS011;69059;52.218;5.172;2023-05-14T15:21:28;4.00;;;2.92;;
65172;SDS011;69059;52.218;5.172;2023-05-14T15:23:57;6.50;;;3.05;;
65172;SDS011;69059;52.218;5.172;2023-05-14T15:26:24;4.25;;;2.90;;
65172;SDS011;69059;52.218;5.172;2023-05-14T15:28:52;4.95;;;2.85;;
65172;SDS011;69059;52.218;5.172;2023-05-14T15:31:22;5.85;;;2.83;;
65172;SDS011;69059;52.218;5.172;2023-05-14T15:33:49;5.47;;;2.75;;
65172;SDS011;69059;52.218;5.172;2023-05-14T15:36:18;6.05;;;2.97;;
65172;SDS011;69059;52.218;5.172;2023-05-14T15:38:46;5.63;;;2.90;;
65172;SDS011;69059;52.218;5.172;2023-05-14T15:41:13;6.22;;;2.80;;
65172;SDS011;69059;52.218;5.172;2023-05-14T15:43:41;5.40;;;2.80;;
65172;SDS011;69059;52.218;5.172;2023-05-14T15:46:09;8.15;;;3.47;;
65172;SDS011;69059;52.218;5.172;2023-05-14T15:48:39;6.22;;;3.85;;
65172;SDS011;69059;52.218;5.172;2023-05-14T15:51:07;8.23;;;3.50;;
65172;SDS011;69059;52.218;5.172;2023-05-14T15:53:35;7.85;;;3.40;;
65172;SDS011;69059;52.218;5.172;2023-05-14T15:56:03;6.38;;;3.95;;
65172;SDS011;69059;52.218;5.172;2023-05-14T16:00:58;6.93;;;4.28;;
65172;SDS011;69059;52.218;5.172;2023-05-14T16:03:26;11.38;;;4.20;;
65172;SDS011;69059;52.218;5.172;2023-05-14T16:05:55;7.72;;;4.55;;
65172;SDS011;69059;52.218;5.172;2023-05-14T16:08:23;7.78;;;4.40;;
65172;SDS011;69059;52.218;5.172;2023-05-14T16:10:51;8.02;;;4.05;;
65172;SDS011;69059;52.218;5.172;2023-05-14T16:13:19;7.53;;;4.15;;
65172;SDS011;69059;52.218;5.172;2023-05-14T16:15:46;9.88;;;5.00;;
65172;SDS011;69059;52.218;5.172;2023-05-14T16:18:14;9.43;;;4.22;;
65172;SDS011;69059;52.218;5.172;2023-05-14T16:20:42;8.82;;;4.72;;
65172;SDS011;69059;52.218;5.172;2023-05-14T16:23:11;11.25;;;4.35;;
65172;SDS011;69059;52.218;5.172;2023-05-14T16:25:39;8.07;;;4.30;;
65172;SDS011;69059;52.218;5.172;2023-05-14T16:28:07;11.10;;;4.35;;
65172;SDS011;69059;52.218;5.172;2023-05-14T16:30:35;10.45;;;4.20;;
65172;SDS011;69059;52.218;5.172;2023-05-14T16:33:03;10.43;;;4.43;;
65172;SDS011;69059;52.218;5.172;2023-05-14T16:35:31;9.88;;;4.32;;
65172;SDS011;69059;52.218;5.172;2023-05-14T16:37:59;9.93;;;4.00;;
65172;SDS011;69059;52.218;5.172;2023-05-14T16:40:28;12.27;;;5.00;;
65172;SDS011;69059;52.218;5.172;2023-05-14T16:42:56;10.32;;;4.63;;
65172;SDS011;69059;52.218;5.172;2023-05-14T16:45:24;10.23;;;5.03;;
65172;SDS011;69059;52.218;5.172;2023-05-14T16:47:52;9.13;;;4.60;;
65172;SDS011;69059;52.218;5.172;2023-05-14T16:50:19;9.40;;;4.75;;
65172;SDS011;69059;52.218;5.172;2023-05-14T16:52:47;11.90;;;4.93;;
65172;SDS011;69059;52.218;5.172;2023-05-14T16:55:15;12.50;;;5.25;;
65172;SDS011;69059;52.218;5.172;2023-05-14T16:57:46;10.40;;;4.95;;
65172;SDS011;69059;52.218;5.172;2023-05-14T17:00:14;10.27;;;4.93;;
65172;SDS011;69059;52.218;5.172;2023-05-14T17:02:43;11.82;;;5.30;;
65172;SDS011;69059;52.218;5.172;2023-05-14T17:05:14;13.07;;;5.50;;
65172;SDS011;69059;52.218;5.172;2023-05-14T17:07:42;10.88;;;5.40;;
65172;SDS011;69059;52.218;5.172;2023-05-14T17:10:10;11.57;;;5.82;;
65172;SDS011;69059;52.218;5.172;2023-05-14T17:12:37;11.50;;;5.20;;
65172;SDS011;69059;52.218;5.172;2023-05-14T17:15:07;15.90;;;6.07;;
65172;SDS011;69059;52.218;5.172;2023-05-14T17:17:36;10.50;;;5.57;;
65172;SDS011;69059;52.218;5.172;2023-05-14T17:20:04;11.82;;;6.32;;
65172;SDS011;69059;52.218;5.172;2023-05-14T17:22:32;13.30;;;7.05;;
65172;SDS011;69059;52.218;5.172;2023-05-14T17:25:00;17.50;;;6.75;;
65172;SDS011;69059;52.218;5.172;2023-05-14T17:27:28;13.60;;;7.50;;
65172;SDS011;69059;52.218;5.172;2023-05-14T17:29:58;12.65;;;6.38;;
65172;SDS011;69059;52.218;5.172;2023-05-14T17:34:56;10.05;;;6.15;;
65172;SDS011;69059;52.218;5.172;2023-05-14T17:37:24;10.63;;;5.95;;
65172;SDS011;69059;52.218;5.172;2023-05-14T17:39:52;11.25;;;6.40;;
65172;SDS011;69059;52.218;5.172;2023-05-14T17:42:20;10.20;;;7.00;;
65172;SDS011;69059;52.218;5.172;2023-05-14T17:44:48;10.60;;;6.28;;
65172;SDS011;69059;52.218;5.172;2023-05-14T17:47:15;12.95;;;6.90;;
65172;SDS011;69059;52.218;5.172;2023-05-14T17:49:47;11.27;;;6.68;;
65172;SDS011;69059;52.218;5.172;2023-05-14T17:52:16;9.13;;;6.43;;
65172;SDS011;69059;52.218;5.172;2023-05-14T17:54:44;10.35;;;6.28;;
65172;SDS011;69059;52.218;5.172;2023-05-14T17:57:12;12.40;;;5.90;;
65172;SDS011;69059;52.218;5.172;2023-05-14T17:59:39;10.77;;;6.22;;
65172;SDS011;69059;52.218;5.172;2023-05-14T18:02:07;11.27;;;6.05;;
65172;SDS011;69059;52.218;5.172;2023-05-14T18:04:35;9.90;;;6.35;;
65172;SDS011;69059;52.218;5.172;2023-05-14T18:07:06;11.50;;;6.90;;
65172;SDS011;69059;52.218;5.172;2023-05-14T18:09:34;11.65;;;6.50;;
65172;SDS011;69059;52.218;5.172;2023-05-14T18:12:01;11.55;;;6.00;;
65172;SDS011;69059;52.218;5.172;2023-05-14T18:14:29;10.25;;;6.07;;
65172;SDS011;69059;52.218;5.172;2023-05-14T18:16:57;9.15;;;5.95;;
65172;SDS011;69059;52.218;5.172;2023-05-14T18:19:25;10.25;;;6.15;;
65172;SDS011;69059;52.218;5.172;2023-05-14T18:21:53;11.90;;;6.68;;
65172;SDS011;69059;52.218;5.172;2023-05-14T18:24:22;9.18;;;5.47;;
65172;SDS011;69059;52.218;5.172;2023-05-14T18:26:51;11.68;;;5.85;;
65172;SDS011;69059;52.218;5.172;2023-05-14T18:29:19;12.90;;;5.75;;
65172;SDS011;69059;52.218;5.172;2023-05-14T18:31:47;8.88;;;5.40;;
65172;SDS011;69059;52.218;5.172;2023-05-14T18:34:14;10.25;;;5.40;;
65172;SDS011;69059;52.218;5.172;2023-05-14T18:36:43;9.30;;;5.50;;
65172;SDS011;69059;52.218;5.172;2023-05-14T18:39:13;8.77;;;5.53;;
65172;SDS011;69059;52.218;5.172;2023-05-14T18:41:49;9.97;;;6.10;;
65172;SDS011;69059;52.218;5.172;2023-05-14T18:44:18;9.67;;;5.33;;
65172;SDS011;69059;52.218;5.172;2023-05-14T18:46:46;5.82;;;5.10;;
65172;SDS011;69059;52.218;5.172;2023-05-14T18:49:14;9.43;;;5.10;;
65172;SDS011;69059;52.218;5.172;2023-05-14T18:51:42;10.07;;;5.55;;
65172;SDS011;69059;52.218;5.172;2023-05-14T18:54:10;10.82;;;5.68;;
65172;SDS011;69059;52.218;5.172;2023-05-14T18:56:38;10.07;;;5.75;;
65172;SDS011;69059;52.218;5.172;2023-05-14T18:59:14;13.30;;;6.00;;
65172;SDS011;69059;52.218;5.172;2023-05-14T19:01:44;12.97;;;5.83;;
65172;SDS011;69059;52.218;5.172;2023-05-14T19:04:12;10.82;;;5.88;;
65172;SDS011;69059;52.218;5.172;2023-05-14T19:06:40;10.52;;;5.50;;
65172;SDS011;69059;52.218;5.172;2023-05-14T19:09:08;9.68;;;5.18;;
65172;SDS011;69059;52.218;5.172;2023-05-14T19:11:36;8.07;;;5.30;;
65172;SDS011;69059;52.218;5.172;2023-05-14T19:14:04;15.15;;;5.55;;
65172;SDS011;69059;52.218;5.172;2023-05-14T19:16:33;8.38;;;5.28;;
65172;SDS011;69059;52.218;5.172;2023-05-14T19:19:01;9.60;;;5.40;;
65172;SDS011;69059;52.218;5.172;2023-05-14T19:21:30;9.95;;;5.93;;
65172;SDS011;69059;52.218;5.172;2023-05-14T19:23:58;11.43;;;5.22;;
65172;SDS011;69059;52.218;5.172;2023-05-14T19:26:28;9.80;;;5.63;;
65172;SDS011;69059;52.218;5.172;2023-05-14T19:28:56;8.80;;;5.43;;
65172;SDS011;69059;52.218;5.172;2023-05-14T19:31:24;10.40;;;5.75;;
65172;SDS011;69059;52.218;5.172;2023-05-14T19:33:53;13.40;;;6.57;;
65172;SDS011;69059;52.218;5.172;2023-05-14T19:36:21;12.90;;;6.03;;
65172;SDS011;69059;52.218;5.172;2023-05-14T19:38:49;8.32;;;5.22;;
65172;SDS011;69059;52.218;5.172;2023-05-14T19:41:17;7.88;;;5.50;;
65172;SDS011;69059;52.218;5.172;2023-05-14T19:43:44;10.05;;;5.75;;
65172;SDS011;69059;52.218;5.172;2023-05-14T19:46:12;12.70;;;6.05;;
65172;SDS011;69059;52.218;5.172;2023-05-14T19:48:40;8.85;;;5.38;;
65172;SDS011;69059;52.218;5.172;2023-05-14T19:51:09;10.48;;;5.80;;
65172;SDS011;69059;52.218;5.172;2023-05-14T19:53:37;9.27;;;5.97;;
65172;SDS011;69059;52.218;5.172;2023-05-14T19:56:05;10.63;;;5.03;;
65172;SDS011;69059;52.218;5.172;2023-05-14T19:58:32;10.07;;;5.50;;
65172;SDS011;69059;52.218;5.172;2023-05-14T20:01:00;12.20;;;6.68;;
65172;SDS011;69059;52.218;5.172;2023-05-14T20:03:28;10.50;;;5.50;;
65172;SDS011;69059;52.218;5.172;2023-05-14T20:05:56;11.95;;;5.60;;
65172;SDS011;69059;52.218;5.172;2023-05-14T20:08:25;7.85;;;5.07;;
65172;SDS011;69059;52.218;5.172;2023-05-14T20:10:54;8.93;;;5.43;;
65172;SDS011;69059;52.218;5.172;2023-05-14T20:13:22;8.73;;;5.93;;
65172;SDS011;69059;52.218;5.172;2023-05-14T20:18:20;8.27;;;5.20;;
65172;SDS011;69059;52.218;5.172;2023-05-14T20:20:48;8.70;;;5.85;;
65172;SDS011;69059;52.218;5.172;2023-05-14T20:23:15;10.25;;;6.18;;
65172;SDS011;69059;52.218;5.172;2023-05-14T20:25:45;8.95;;;5.95;;
65172;SDS011;69059;52.218;5.172;2023-05-14T20:28:13;9.90;;;6.07;;
65172;SDS011;69059;52.218;5.172;2023-05-14T20:30:40;11.13;;;6.35;;
65172;SDS011;69059;52.218;5.172;2023-05-14T20:33:08;9.27;;;6.00;;
65172;SDS011;69059;52.218;5.172;2023-05-14T20:35:38;5.97;;;5.00;;
65172;SDS011;69059;52.218;5.172;2023-05-14T20:38:09;12.13;;;5.37;;
65172;SDS011;69059;52.218;5.172;2023-05-14T20:40:38;10.50;;;5.07;;
65172;SDS011;69059;52.218;5.172;2023-05-14T20:43:07;7.53;;;4.85;;
65172;SDS011;69059;52.218;5.172;2023-05-14T20:45:35;8.70;;;5.50;;
65172;SDS011;69059;52.218;5.172;2023-05-14T20:48:03;7.72;;;5.45;;
65172;SDS011;69059;52.218;5.172;2023-05-14T20:50:35;7.00;;;5.00;;
65172;SDS011;69059;52.218;5.172;2023-05-14T20:53:03;10.60;;;5.60;;
65172;SDS011;69059;52.218;5.172;2023-05-14T20:55:31;9.50;;;5.63;;
65172;SDS011;69059;52.218;5.172;2023-05-14T20:57:59;7.13;;;5.15;;
65172;SDS011;69059;52.218;5.172;2023-05-14T21:00:28;9.27;;;5.20;;
65172;SDS011;69059;52.218;5.172;2023-05-14T21:02:56;9.77;;;5.67;;
65172;SDS011;69059;52.218;5.172;2023-05-14T21:05:25;10.80;;;5.70;;
65172;SDS011;69059;52.218;5.172;2023-05-14T21:07:53;6.85;;;5.10;;
65172;SDS011;69059;52.218;5.172;2023-05-14T21:10:21;12.73;;;5.78;;
65172;SDS011;69059;52.218;5.172;2023-05-14T21:12:49;10.00;;;5.53;;
65172;SDS011;69059;52.218;5.172;2023-05-14T21:15:17;9.65;;;6.15;;
65172;SDS011;69059;52.218;5.172;2023-05-14T21:17:47;11.30;;;6.78;;
65172;SDS011;69059;52.218;5.172;2023-05-14T21:20:14;10.37;;;6.90;;
65172;SDS011;69059;52.218;5.172;2023-05-14T21:22:43;9.15;;;6.47;;
65172;SDS011;69059;52.218;5.172;2023-05-14T21:25:11;10.27;;;6.63;;
65172;SDS011;69059;52.218;5.172;2023-05-14T21:27:38;9.13;;;7.10;;
65172;SDS011;69059;52.218;5.172;2023-05-14T21:30:07;9.48;;;7.00;;
65172;SDS011;69059;52.218;5.172;2023-05-14T21:32:35;8.27;;;6.30;;
65172;SDS011;69059;52.218;5.172;2023-05-14T21:35:05;11.67;;;7.23;;
65172;SDS011;69059;52.218;5.172;2023-05-14T21:37:33;11.27;;;6.93;;
65172;SDS011;69059;52.218;5.172;2023-05-14T21:40:01;8.20;;;6.82;;
65172;SDS011;69059;52.218;5.172;2023-05-14T21:42:28;10.97;;;7.13;;
65172;SDS011;69059;52.218;5.172;2023-05-14T21:44:56;10.48;;;8.07;;
65172;SDS011;69059;52.218;5.172;2023-05-14T21:47:24;12.63;;;8.80;;
65172;SDS011;69059;52.218;5.172;2023-05-14T21:52:21;17.47;;;10.50;;
65172;SDS011;69059;52.218;5.172;2023-05-14T21:54:49;14.00;;;9.83;;
65172;SDS011;69059;52.218;5.172;2023-05-14T21:57:17;14.13;;;9.00;;
65172;SDS011;69059;52.218;5.172;2023-05-14T21:59:45;14.07;;;10.10;;
65172;SDS011;69059;52.218;5.172;2023-05-14T22:02:15;13.10;;;10.20;;
65172;SDS011;69059;52.218;5.172;2023-05-14T22:04:43;13.45;;;9.25;;
65172;SDS011;69059;52.218;5.172;2023-05-14T22:07:12;13.38;;;10.07;;
65172;SDS011;69059;52.218;5.172;2023-05-14T22:09:41;17.50;;;11.10;;
65172;SDS011;69059;52.218;5.172;2023-05-14T22:12:11;11.87;;;10.13;;
65172;SDS011;69059;52.218;5.172;2023-05-14T22:14:39;12.35;;;10.57;;
65172;SDS011;69059;52.218;5.172;2023-05-14T22:17:07;13.93;;;11.25;;
65172;SDS011;69059;52.218;5.172;2023-05-14T22:19:35;16.83;;;11.80;;
65172;SDS011;69059;52.218;5.172;2023-05-14T22:22:02;15.13;;;11.50;;
65172;SDS011;69059;52.218;5.172;2023-05-14T22:24:30;14.82;;;12.02;;
65172;SDS011;69059;52.218;5.172;2023-05-14T22:26:59;15.50;;;12.53;;
65172;SDS011;69059;52.218;5.172;2023-05-14T22:29:27;17.30;;;13.60;;
65172;SDS011;69059;52.218;5.172;2023-05-14T22:31:55;18.50;;;12.77;;
65172;SDS011;69059;52.218;5.172;2023-05-14T22:34:23;18.35;;;13.07;;
65172;SDS011;69059;52.218;5.172;2023-05-14T22:36:50;17.77;;;13.47;;
65172;SDS011;69059;52.218;5.172;2023-05-14T22:39:18;17.77;;;13.63;;
65172;SDS011;69059;52.218;5.172;2023-05-14T22:41:46;15.48;;;13.25;;
65172;SDS011;69059;52.218;5.172;2023-05-14T22:44:21;20.83;;;13.80;;
65172;SDS011;69059;52.218;5.172;2023-05-14T22:46:49;16.47;;;13.47;;
65172;SDS011;69059;52.218;5.172;2023-05-14T22:49:17;19.40;;;14.40;;
65172;SDS011;69059;52.218;5.172;2023-05-14T22:51:44;17.63;;;13.47;;
65172;SDS011;69059;52.218;5.172;2023-05-14T22:54:12;18.53;;;13.47;;
65172;SDS011;69059;52.218;5.172;2023-05-14T22:56:40;18.60;;;15.40;;
65172;SDS011;69059;52.218;5.172;2023-05-14T22:59:08;24.70;;;15.93;;
65172;SDS011;69059;52.218;5.172;2023-05-14T23:01:37;23.85;;;16.30;;
65172;SDS011;69059;52.218;5.172;2023-05-14T23:04:05;16.70;;;14.40;;
65172;SDS011;69059;52.218;5.172;2023-05-14T23:06:33;20.42;;;15.00;;
65172;SDS011;69059;52.218;5.172;2023-05-14T23:09:01;20.38;;;15.27;;
65172;SDS011;69059;52.218;5.172;2023-05-14T23:11:29;21.03;;;16.03;;
65172;SDS011;69059;52.218;5.172;2023-05-14T23:13:57;20.63;;;16.40;;
65172;SDS011;69059;52.218;5.172;2023-05-14T23:16:24;20.43;;;15.00;;
65172;SDS011;69059;52.218;5.172;2023-05-14T23:18:53;23.80;;;16.17;;
65172;SDS011;69059;52.218;5.172;2023-05-14T23:21:21;23.20;;;16.23;;
65172;SDS011;69059;52.218;5.172;2023-05-14T23:23:49;21.13;;;16.30;;
65172;SDS011;69059;52.218;5.172;2023-05-14T23:26:17;21.53;;;15.90;;
65172;SDS011;69059;52.218;5.172;2023-05-14T23:28:45;20.63;;;17.07;;
65172;SDS011;69059;52.218;5.172;2023-05-14T23:31:13;21.02;;;16.08;;
65172;SDS011;69059;52.218;5.172;2023-05-14T23:33:41;20.38;;;15.60;;
65172;SDS011;69059;52.218;5.172;2023-05-14T23:36:11;26.00;;;17.27;;
65172;SDS011;69059;52.218;5.172;2023-05-14T23:38:39;24.60;;;17.70;;
65172;SDS011;69059;52.218;5.172;2023-05-14T23:41:07;21.75;;;16.60;;
65172;SDS011;69059;52.218;5.172;2023-05-14T23:43:35;26.07;;;17.83;;
65172;SDS011;69059;52.218;5.172;2023-05-14T23:46:03;21.80;;;16.88;;
65172;SDS011;69059;52.218;5.172;2023-05-14T23:48:31;23.08;;;17.42;;
65172;SDS011;69059;52.218;5.172;2023-05-14T23:50:59;22.87;;;16.53;;
65172;SDS011;69059;52.218;5.172;2023-05-14T23:53:28;22.23;;;16.92;;
65172;SDS011;69059;52.218;5.172;2023-05-14T23:55:56;20.37;;;16.60;;
65172;SDS011;69059;52.218;5.172;2023-05-14T23:58:23;26.10;;;18.05;;
